Omskiy-107 — UBWE3 — position and weather

sailwx.info

Track history (hours):
 
Tides and Currents Weather Stations Pressure Air Temp Water Temp Dewpoint Dewpoint Depression Visibility Wind Speed Wind Dir Waves Ship Positions

Omskiy-107

Last reported at 2016-Sep-08 01:29 UTC. Time now 2016-Sep-30 16:57 UTC.
Position N 43°30' E 034°29'.
Warning: this ship's position is 22 days out of date.

Length 108 m; draft 3.2 m.

Type: Cargo ship. MMSI: 273343220.

Date/timePositionNaut miles runAvg speedWind from/ knotsBaromVisibWave heightAir tempDewpointWater temp
2016-Sep-08 01:29N 43°30' E 034°29'8 8.3
2016-Sep-08 00:33N 43°34' E 034°38'9 8.2
2016-Sep-07 23:27N 43°39' E 034°49'8 8.3
2016-Sep-07 22:33N 43°42' E 034°58'8 8.4
2016-Sep-07 21:33N 43°46' E 035°09'42 8.3
2016-Sep-07 16:28N 44°06' E 036°00'56 8.0
2016-Sep-07 09:27N 44°58' E 036°29'8 8.4
2016-Sep-07 08:31N 45°06' E 036°30'7 7.4
2016-Sep-07 07:33N 45°13' E 036°28'6 6.2
2016-Sep-07 06:33N 45°19' E 036°31'11 5.4
2016-Sep-07 04:33N 45°28' E 036°39'1 0.6
2016-Sep-07 02:31N 45°29' E 036°38'4 4.3
2016-Sep-07 01:33N 45°31' E 036°43'32 8.1
2016-Sep-06 21:33N 46°01' E 037°00'8 8.2
2016-Sep-06 20:33N 46°09' E 037°04'  
Track history (hours):
 
Tides and Currents Weather Stations Pressure Air Temp Water Temp Dewpoint Dewpoint Depression Visibility Wind Speed Wind Dir Waves Ship Positions

Omskiy-107

Last reported at 2016-Sep-08 01:29 UTC. Time now 2016-Sep-30 16:57 UTC.
Position N 43°30' E 034°29'.
Warning: this ship's position is 22 days out of date.

Length 108 m; draft 3.2 m.

Type: Cargo ship. MMSI: 273343220.

Date/timePositionNaut miles runAvg speedWind from/ knotsBaromVisibWave heightAir tempDewpointWater temp
2016-Sep-08 01:29N 43°30' E 034°29'8 8.3
2016-Sep-08 00:33N 43°34' E 034°38'9 8.2
2016-Sep-07 23:27N 43°39' E 034°49'8 8.3
2016-Sep-07 22:33N 43°42' E 034°58'8 8.4
2016-Sep-07 21:33N 43°46' E 035°09'42 8.3
2016-Sep-07 16:28N 44°06' E 036°00'56 8.0
2016-Sep-07 09:27N 44°58' E 036°29'8 8.4
2016-Sep-07 08:31N 45°06' E 036°30'7 7.4
2016-Sep-07 07:33N 45°13' E 036°28'6 6.2
2016-Sep-07 06:33N 45°19' E 036°31'11 5.4
2016-Sep-07 04:33N 45°28' E 036°39'1 0.6
2016-Sep-07 02:31N 45°29' E 036°38'4 4.3
2016-Sep-07 01:33N 45°31' E 036°43'32 8.1
2016-Sep-06 21:33N 46°01' E 037°00'8 8.2
2016-Sep-06 20:33N 46°09' E 037°04'  

Dump ship's entire track history